Fletchers Landing Township, Maine
Current Conditions -  °F | °C
As of 2:15 PM on Monday 20 Oct 2014 (Local Time) from KBHB Reporting Station
Clear Clear  
Wind Chill: 44°   Ceiling: Unl
Heat Index: 48°   Visibility: 10mi
Dew Point: 27°   Wind: 9mph
Humidity: 43%   Direction: 240°WSW
Pressure: 29.9"   Gusts: NA
Location:  44.6651°N, 68.3944°W
Report Text: KBHB 201815Z AUTO 24008KT 10SM CLR 09/M03 A2990 RMK AO1
Loading
Personal Weather Stations






























Interactive Weather Map
Tropical Storm Tracking
New forecast layout! Learn more

10-Day Weather Forecast

Advertisements
Track Severe Weather on mobile